Time;durP1;ratioP1;P1;durP2;ratioP2;P2;SDS_P1;SDS_P2;PMS_P1;PMS_P2;Temp;Humidity;BMP_temperature;BMP_pressure;BME280_temperature;BME280_humidity;BME280_pressure;Samples;Min_cycle;Max_cycle;Signal;HPM_P1;HPM_P2
2021/08/04 00:00:08;;;;;;;1.10;1.00;;;;;;;;;;5030976;28;20594;-67
2021/08/04 00:02:34;;;;;;;1.95;1.48;;;;;;;;;;5024300;28;20025;-67
2021/08/04 00:05:00;;;;;;;1.25;1.15;;;;;;;;;;5029150;28;20017;-69
2021/08/04 00:07:26;;;;;;;1.42;1.33;;;;;;;;;;5040684;28;20032;-69
2021/08/04 00:09:52;;;;;;;0.80;0.80;;;;;;;;;;5044708;28;20068;-68
2021/08/04 00:12:18;;;;;;;1.20;1.10;;;;;;;;;;5044540;28;20052;-67
2021/08/04 00:14:44;;;;;;;1.20;1.10;;;;;;;;;;5044712;28;20071;-67
2021/08/04 00:17:11;;;;;;;1.52;1.33;;;;;;;;;;5044022;28;20028;-66
2021/08/04 00:19:37;;;;;;;1.60;1.42;;;;;;;;;;5038192;28;20075;-65
2021/08/04 00:22:03;;;;;;;1.27;1.10;;;;;;;;;;5030490;28;20037;-65
2021/08/04 00:24:29;;;;;;;1.27;1.17;;;;;;;;;;5024896;28;20064;-66
2021/08/04 00:26:55;;;;;;;1.33;1.15;;;;;;;;;;5025512;28;20030;-66
2021/08/04 00:29:21;;;;;;;1.25;1.15;;;;;;;;;;5025165;28;20419;-66
2021/08/04 00:31:47;;;;;;;1.30;1.20;;;;;;;;;;5024767;28;20112;-66
2021/08/04 00:34:13;;;;;;;1.40;1.27;;;;;;;;;;5024795;28;20056;-66
2021/08/04 00:36:41;;;;;;;1.38;1.27;;;;;;;;;;5032573;28;20410;-66
2021/08/04 00:39:07;;;;;;;1.35;1.25;;;;;;;;;;5044242;28;20115;-66
2021/08/04 00:41:37;;;;;;;1.27;1.17;;;;;;;;;;5043051;28;20258;-66
2021/08/04 00:44:03;;;;;;;1.77;1.52;;;;;;;;;;5044559;28;20515;-66
2021/08/04 00:46:30;;;;;;;2.45;1.30;;;;;;;;;;5044377;28;20455;-65
2021/08/04 00:48:56;;;;;;;1.35;1.20;;;;;;;;;;5045170;28;20068;-65
2021/08/04 00:51:23;;;;;;;1.65;1.40;;;;;;;;;;5044286;28;20060;-66
2021/08/04 00:53:49;;;;;;;1.63;1.20;;;;;;;;;;5047340;28;20033;-65
2021/08/04 00:56:15;;;;;;;1.25;1.15;;;;;;;;;;5048752;28;20035;-65
2021/08/04 00:58:42;;;;;;;1.90;1.50;;;;;;;;;;5048407;28;20533;-65
2021/08/04 01:01:17;;;;;;;1.35;1.25;;;;;;;;;;5048027;28;20028;-65
2021/08/04 01:03:44;;;;;;;1.52;1.42;;;;;;;;;;5048604;28;20478;-65
2021/08/04 01:06:30;;;;;;;1.23;1.13;;;;;;;;;;5048192;28;20035;-65
2021/08/04 01:08:57;;;;;;;1.40;1.30;;;;;;;;;;5047290;28;20029;-65
2021/08/04 01:11:26;;;;;;;1.70;1.25;;;;;;;;;;5048877;28;20032;-65
2021/08/04 01:13:52;;;;;;;1.35;1.10;;;;;;;;;;5048819;28;20033;-65
2021/08/04 01:16:22;;;;;;;1.52;1.10;;;;;;;;;;5048273;28;20025;-65
2021/08/04 01:18:54;;;;;;;3.63;1.27;;;;;;;;;;5048057;28;20526;-64
2021/08/04 01:21:23;;;;;;;1.45;1.35;;;;;;;;;;5047645;28;20090;-64
2021/08/04 01:24:00;;;;;;;1.20;1.10;;;;;;;;;;5047458;28;20033;-64
2021/08/04 01:26:26;;;;;;;2.00;1.35;;;;;;;;;;5048528;28;20410;-64
2021/08/04 01:28:52;;;;;;;1.48;1.38;;;;;;;;;;5048033;28;20082;-64
2021/08/04 01:31:22;;;;;;;1.42;1.33;;;;;;;;;;5047873;28;20495;-64
2021/08/04 01:33:50;;;;;;;1.33;1.13;;;;;;;;;;5028868;28;20053;-64
2021/08/04 01:36:16;;;;;;;2.13;1.13;;;;;;;;;;5028492;28;20029;-64
2021/08/04 01:38:44;;;;;;;1.20;1.10;;;;;;;;;;5027484;28;20029;-64
2021/08/04 01:41:11;;;;;;;1.17;1.08;;;;;;;;;;5026396;28;20018;-64
2021/08/04 01:43:38;;;;;;;1.52;1.20;;;;;;;;;;5028328;28;20065;-64
2021/08/04 01:46:05;;;;;;;0.90;0.90;;;;;;;;;;5027156;28;20492;-64
2021/08/04 01:48:31;;;;;;;1.27;1.10;;;;;;;;;;5027407;28;20088;-64
2021/08/04 01:51:01;;;;;;;1.20;1.10;;;;;;;;;;5037696;28;20032;-64
2021/08/04 01:53:27;;;;;;;0.95;0.93;;;;;;;;;;5047571;28;20029;-64
2021/08/04 01:55:53;;;;;;;1.20;1.10;;;;;;;;;;5047460;28;20056;-64
2021/08/04 01:58:20;;;;;;;1.15;1.05;;;;;;;;;;5047431;28;20066;-64
2021/08/04 02:00:46;;;;;;;1.10;1.00;;;;;;;;;;5047040;28;20082;-64
2021/08/04 02:03:12;;;;;;;1.10;1.00;;;;;;;;;;5047321;28;20025;-63
2021/08/04 02:05:38;;;;;;;0.90;0.85;;;;;;;;;;5047225;28;20028;-64
2021/08/04 02:08:25;;;;;;;1.23;1.10;;;;;;;;;;5047010;28;20104;-64
2021/08/04 02:10:53;;;;;;;1.20;1.10;;;;;;;;;;5045473;28;20070;-64
2021/08/04 02:13:42;;;;;;;1.15;1.05;;;;;;;;;;5047450;28;20040;-64
2021/08/04 02:16:28;;;;;;;1.20;1.10;;;;;;;;;;5046875;28;20090;-64
2021/08/04 02:19:02;;;;;;;1.52;1.42;;;;;;;;;;5046429;28;20065;-63
2021/08/04 02:21:32;;;;;;;1.23;1.13;;;;;;;;;;5046844;28;20026;-64
2021/08/04 02:23:59;;;;;;;0.93;0.93;;;;;;;;;;5046241;28;20506;-64
2021/08/04 02:26:27;;;;;;;1.05;0.95;;;;;;;;;;5045802;28;20577;-63
2021/08/04 02:28:55;;;;;;;1.00;1.00;;;;;;;;;;5046428;28;20028;-63
2021/08/04 02:31:21;;;;;;;0.70;0.70;;;;;;;;;;5046347;28;20029;-63
2021/08/04 02:33:47;;;;;;;0.85;0.82;;;;;;;;;;5046853;28;20057;-63
2021/08/04 02:36:14;;;;;;;1.40;1.17;;;;;;;;;;5046864;28;20034;-64
2021/08/04 02:38:40;;;;;;;0.73;0.73;;;;;;;;;;5046508;28;20029;-64
2021/08/04 02:41:07;;;;;;;1.23;1.13;;;;;;;;;;5046817;28;20032;-64
2021/08/04 02:43:34;;;;;;;0.93;0.93;;;;;;;;;;5046979;28;20033;-64
2021/08/04 02:46:01;;;;;;;1.33;0.93;;;;;;;;;;5046162;28;20539;-64
2021/08/04 02:48:27;;;;;;;1.70;1.17;;;;;;;;;;5046554;28;20385;-64
2021/08/04 02:50:54;;;;;;;0.68;0.68;;;;;;;;;;5046385;28;20025;-64
2021/08/04 02:53:21;;;;;;;0.90;0.82;;;;;;;;;;5046481;28;20458;-63
2021/08/04 02:55:49;;;;;;;0.90;0.90;;;;;;;;;;5046534;28;20028;-64
2021/08/04 02:58:15;;;;;;;0.70;0.70;;;;;;;;;;5046265;28;20033;-64
2021/08/04 03:00:43;;;;;;;1.70;0.93;;;;;;;;;;5046133;28;20032;-64
2021/08/04 03:03:09;;;;;;;2.17;1.08;;;;;;;;;;5046174;28;20021;-64
2021/08/04 03:05:35;;;;;;;0.93;0.88;;;;;;;;;;5046851;28;20372;-64
2021/08/04 03:08:01;;;;;;;0.80;0.80;;;;;;;;;;5045866;28;20040;-64
2021/08/04 03:10:27;;;;;;;1.33;1.00;;;;;;;;;;5046288;28;20036;-64
2021/08/04 03:12:53;;;;;;;1.08;0.90;;;;;;;;;;5044070;28;20510;-64
2021/08/04 03:15:19;;;;;;;1.20;1.10;;;;;;;;;;5043929;28;20107;-63
2021/08/04 03:17:46;;;;;;;1.45;1.20;;;;;;;;;;5043907;28;20123;-63
2021/08/04 03:20:13;;;;;;;0.77;0.77;;;;;;;;;;5045596;28;20264;-63
2021/08/04 03:22:43;;;;;;;1.10;1.00;;;;;;;;;;5046391;28;20033;-63
2021/08/04 03:25:09;;;;;;;1.40;1.00;;;;;;;;;;5046250;28;20025;-63
2021/08/04 03:27:35;;;;;;;1.25;1.15;;;;;;;;;;5045983;28;20507;-63
2021/08/04 03:30:02;;;;;;;1.20;1.10;;;;;;;;;;5045462;28;20031;-64
2021/08/04 03:32:28;;;;;;;1.25;0.90;;;;;;;;;;5028271;28;20063;-63
2021/08/04 03:34:54;;;;;;;1.05;0.80;;;;;;;;;;5026090;28;20018;-64
2021/08/04 03:37:20;;;;;;;1.23;1.13;;;;;;;;;;5025354;28;20095;-63
2021/08/04 03:39:46;;;;;;;1.20;1.10;;;;;;;;;;5025639;28;20026;-63
2021/08/04 03:42:15;;;;;;;1.10;1.00;;;;;;;;;;5025412;28;20060;-63
2021/08/04 03:44:42;;;;;;;1.55;1.10;;;;;;;;;;5025254;28;20029;-63
2021/08/04 03:47:08;;;;;;;1.25;1.15;;;;;;;;;;5023839;28;20543;-63
2021/08/04 03:49:34;;;;;;;1.20;1.10;;;;;;;;;;5024003;28;20029;-63
2021/08/04 03:51:59;;;;;;;1.10;1.00;;;;;;;;;;5025183;28;20053;-63
2021/08/04 03:54:25;;;;;;;1.30;1.20;;;;;;;;;;5025417;28;20466;-63
2021/08/04 03:56:51;;;;;;;1.40;1.20;;;;;;;;;;5025305;28;20036;-63
2021/08/04 03:59:17;;;;;;;1.27;1.17;;;;;;;;;;5024981;28;20492;-63
2021/08/04 04:01:43;;;;;;;1.70;1.60;;;;;;;;;;5025476;28;20030;-63
2021/08/04 04:04:09;;;;;;;1.55;1.20;;;;;;;;;;5025607;28;20036;-63
2021/08/04 04:06:36;;;;;;;2.15;1.50;;;;;;;;;;5025431;28;20104;-64
2021/08/04 04:09:02;;;;;;;1.23;1.10;;;;;;;;;;5025395;28;20329;-63
2021/08/04 04:11:29;;;;;;;1.30;1.20;;;;;;;;;;5025013;28;20037;-63
2021/08/04 04:13:55;;;;;;;1.73;1.15;;;;;;;;;;5024950;28;20492;-63
2021/08/04 04:16:24;;;;;;;1.60;1.50;;;;;;;;;;5025129;28;20115;-63
2021/08/04 04:18:50;;;;;;;1.25;1.15;;;;;;;;;;5025211;28;20083;-63
2021/08/04 04:21:16;;;;;;;1.30;1.20;;;;;;;;;;5024869;28;20491;-63
2021/08/04 04:23:43;;;;;;;1.55;1.45;;;;;;;;;;5024869;28;20021;-63
2021/08/04 04:26:10;;;;;;;1.42;1.33;;;;;;;;;;5025247;28;20025;-63
2021/08/04 04:28:37;;;;;;;1.35;1.25;;;;;;;;;;5025033;28;20022;-63
2021/08/04 04:31:03;;;;;;;1.45;1.30;;;;;;;;;;5024755;28;20038;-63
2021/08/04 04:33:29;;;;;;;2.03;1.33;;;;;;;;;;5025383;28;20021;-63
2021/08/04 04:35:55;;;;;;;1.27;1.17;;;;;;;;;;5024618;28;20040;-63
2021/08/04 04:38:22;;;;;;;1.00;1.00;;;;;;;;;;5024628;28;20021;-63
2021/08/04 04:40:49;;;;;;;1.08;0.98;;;;;;;;;;5024574;28;20389;-63
2021/08/04 04:43:15;;;;;;;1.02;1.00;;;;;;;;;;5024690;28;20540;-63
2021/08/04 04:45:42;;;;;;;1.52;1.10;;;;;;;;;;5025181;28;20120;-63
2021/08/04 04:48:08;;;;;;;1.45;1.00;;;;;;;;;;5025247;28;20348;-63
2021/08/04 04:50:34;;;;;;;1.30;1.20;;;;;;;;;;5025007;28;20026;-63
2021/08/04 04:53:01;;;;;;;1.10;1.00;;;;;;;;;;5024265;28;20108;-63
2021/08/04 04:55:27;;;;;;;1.20;1.10;;;;;;;;;;5024749;28;20037;-63
2021/08/04 04:57:54;;;;;;;1.15;0.90;;;;;;;;;;5024444;28;20083;-63
2021/08/04 05:00:21;;;;;;;1.08;0.82;;;;;;;;;;5024880;28;20056;-63
2021/08/04 05:02:46;;;;;;;1.23;1.00;;;;;;;;;;5024632;28;20021;-63
2021/08/04 05:05:12;;;;;;;0.98;0.98;;;;;;;;;;5024631;28;20029;-63
2021/08/04 05:07:39;;;;;;;1.10;1.00;;;;;;;;;;5025340;28;20068;-63
2021/08/04 05:10:05;;;;;;;1.13;1.02;;;;;;;;;;5024471;28;20033;-63
2021/08/04 05:12:31;;;;;;;1.30;1.20;;;;;;;;;;5024352;28;20116;-64
2021/08/04 05:14:58;;;;;;;0.98;0.95;;;;;;;;;;5024182;28;20109;-63
2021/08/04 05:17:24;;;;;;;2.65;1.10;;;;;;;;;;5024533;28;20036;-63
2021/08/04 05:19:51;;;;;;;1.17;1.05;;;;;;;;;;5024393;28;20033;-63
2021/08/04 05:22:18;;;;;;;1.67;0.80;;;;;;;;;;5023794;28;20499;-63
2021/08/04 05:24:44;;;;;;;1.30;1.20;;;;;;;;;;5024514;28;20381;-63
2021/08/04 05:27:10;;;;;;;1.20;1.00;;;;;;;;;;5024704;28;20508;-63
2021/08/04 05:29:36;;;;;;;1.90;1.50;;;;;;;;;;5034187;28;20029;-62
2021/08/04 05:32:03;;;;;;;1.65;1.20;;;;;;;;;;5029030;28;20435;-63
2021/08/04 05:34:29;;;;;;;1.40;1.10;;;;;;;;;;5028944;28;20071;-63
2021/08/04 05:36:55;;;;;;;1.38;0.98;;;;;;;;;;5045547;28;20315;-62
2021/08/04 05:39:22;;;;;;;1.10;1.00;;;;;;;;;;5025429;28;20052;-62
2021/08/04 05:41:48;;;;;;;1.05;0.90;;;;;;;;;;5029068;28;20030;-62
2021/08/04 05:44:14;;;;;;;2.05;1.13;;;;;;;;;;5048901;28;20078;-62
2021/08/04 05:46:40;;;;;;;0.70;0.70;;;;;;;;;;5046331;28;20070;-62
2021/08/04 05:49:06;;;;;;;0.82;0.80;;;;;;;;;;5029704;28;20048;-62
2021/08/04 05:51:32;;;;;;;1.02;0.93;;;;;;;;;;5038586;28;20478;-62
2021/08/04 05:53:58;;;;;;;0.73;0.73;;;;;;;;;;5031088;28;20377;-62
2021/08/04 05:56:24;;;;;;;0.77;0.77;;;;;;;;;;5033918;28;20021;-62
2021/08/04 05:58:51;;;;;;;1.00;0.90;;;;;;;;;;5048579;28;20025;-62
2021/08/04 06:01:17;;;;;;;0.80;0.80;;;;;;;;;;5048554;28;20023;-62
2021/08/04 06:03:43;;;;;;;0.73;0.73;;;;;;;;;;5049109;28;20406;-62
2021/08/04 06:06:09;;;;;;;0.68;0.68;;;;;;;;;;5049443;28;20029;-62
2021/08/04 06:08:37;;;;;;;0.82;0.82;;;;;;;;;;5048529;28;20519;-62
2021/08/04 06:11:03;;;;;;;1.10;1.00;;;;;;;;;;5028634;28;20029;-62
2021/08/04 06:13:29;;;;;;;0.70;0.70;;;;;;;;;;5028907;28;20030;-62
2021/08/04 06:15:55;;;;;;;0.63;0.60;;;;;;;;;;5028668;28;20673;-62
2021/08/04 06:18:22;;;;;;;0.80;0.80;;;;;;;;;;5028677;28;20037;-62
2021/08/04 06:20:48;;;;;;;0.80;0.80;;;;;;;;;;5029384;28;20116;-62
2021/08/04 06:23:14;;;;;;;0.90;0.90;;;;;;;;;;5029489;28;20033;-62
2021/08/04 06:25:40;;;;;;;0.80;0.80;;;;;;;;;;5029494;28;20071;-62
2021/08/04 06:28:06;;;;;;;0.75;0.75;;;;;;;;;;5028418;28;20606;-62
2021/08/04 06:30:32;;;;;;;0.80;0.80;;;;;;;;;;5041377;28;20064;-62
2021/08/04 06:32:58;;;;;;;0.88;0.88;;;;;;;;;;5047053;28;20451;-62
2021/08/04 06:35:24;;;;;;;1.00;0.90;;;;;;;;;;5047005;28;20033;-63
2021/08/04 06:37:50;;;;;;;0.93;0.70;;;;;;;;;;5046517;28;20060;-62
2021/08/04 06:40:16;;;;;;;0.70;0.70;;;;;;;;;;5045074;28;20494;-63
2021/08/04 06:42:42;;;;;;;0.70;0.60;;;;;;;;;;5046412;28;20021;-62
2021/08/04 06:45:09;;;;;;;0.68;0.68;;;;;;;;;;5047352;28;20105;-62
2021/08/04 06:47:35;;;;;;;0.50;0.50;;;;;;;;;;5046694;28;20029;-63
2021/08/04 06:50:01;;;;;;;0.40;0.40;;;;;;;;;;5033725;28;20052;-62
2021/08/04 06:52:27;;;;;;;0.70;0.70;;;;;;;;;;5031871;28;20025;-62
2021/08/04 06:54:53;;;;;;;0.57;0.57;;;;;;;;;;5043327;28;20025;-63
2021/08/04 06:57:19;;;;;;;0.77;0.77;;;;;;;;;;5041439;28;20034;-62
2021/08/04 06:59:45;;;;;;;0.50;0.50;;;;;;;;;;5026951;28;20476;-63
2021/08/04 07:02:11;;;;;;;0.70;0.70;;;;;;;;;;5038613;28;20034;-63
2021/08/04 07:04:37;;;;;;;0.70;0.70;;;;;;;;;;5056955;28;20472;-63
2021/08/04 07:07:04;;;;;;;0.80;0.80;;;;;;;;;;5031231;28;20084;-63
2021/08/04 07:09:34;;;;;;;0.98;0.60;;;;;;;;;;5040416;28;20024;-63
2021/08/04 07:12:01;;;;;;;0.75;0.75;;;;;;;;;;5046932;28;20074;-63
2021/08/04 07:14:28;;;;;;;0.75;0.75;;;;;;;;;;5047496;28;20036;-63
2021/08/04 07:16:54;;;;;;;0.90;0.90;;;;;;;;;;5046289;28;20128;-63
2021/08/04 07:19:20;;;;;;;0.70;0.70;;;;;;;;;;5047404;28;20260;-63
2021/08/04 07:21:47;;;;;;;0.93;0.93;;;;;;;;;;5047252;28;20032;-63
2021/08/04 07:24:14;;;;;;;0.80;0.80;;;;;;;;;;5046804;28;20029;-63
2021/08/04 07:26:41;;;;;;;0.82;0.82;;;;;;;;;;5047442;28;20083;-62
2021/08/04 07:29:07;;;;;;;1.00;0.90;;;;;;;;;;5047113;28;20441;-63
2021/08/04 07:31:34;;;;;;;1.17;1.08;;;;;;;;;;5046913;28;20032;-63
2021/08/04 07:34:00;;;;;;;1.10;1.00;;;;;;;;;;5046638;28;20029;-62
2021/08/04 07:36:27;;;;;;;1.00;1.00;;;;;;;;;;5046972;28;20029;-63
2021/08/04 07:38:53;;;;;;;1.38;0.95;;;;;;;;;;5034424;28;20083;-63
2021/08/04 07:41:19;;;;;;;0.82;0.82;;;;;;;;;;5026773;28;20025;-63
2021/08/04 07:43:45;;;;;;;1.13;0.90;;;;;;;;;;5037650;28;20032;-63
2021/08/04 07:46:13;;;;;;;0.77;0.77;;;;;;;;;;5036822;28;20088;-63
2021/08/04 07:48:39;;;;;;;1.00;0.98;;;;;;;;;;5037975;28;20024;-63
2021/08/04 07:51:06;;;;;;;0.77;0.77;;;;;;;;;;5031801;28;20034;-63
2021/08/04 07:53:32;;;;;;;0.65;0.57;;;;;;;;;;5034714;28;20029;-62
2021/08/04 07:55:58;;;;;;;0.80;0.80;;;;;;;;;;5035153;28;20502;-62
2021/08/04 07:58:24;;;;;;;0.60;0.60;;;;;;;;;;5045998;28;20037;-62
2021/08/04 08:00:50;;;;;;;0.68;0.68;;;;;;;;;;5028329;28;20076;-62
2021/08/04 08:03:17;;;;;;;0.80;0.77;;;;;;;;;;5027216;28;20025;-62
2021/08/04 08:05:43;;;;;;;0.60;0.60;;;;;;;;;;5027110;28;20076;-62
2021/08/04 08:08:09;;;;;;;0.90;0.90;;;;;;;;;;5044430;28;20033;-63
2021/08/04 08:10:36;;;;;;;0.70;0.70;;;;;;;;;;5045897;28;20060;-63
2021/08/04 08:13:03;;;;;;;1.35;0.88;;;;;;;;;;5045580;28;20146;-62
2021/08/04 08:15:29;;;;;;;1.00;0.73;;;;;;;;;;5046399;28;20428;-62
2021/08/04 08:17:55;;;;;;;0.70;0.70;;;;;;;;;;5046146;28;20025;-62
2021/08/04 08:20:21;;;;;;;0.73;0.73;;;;;;;;;;5046237;28;20029;-63
2021/08/04 08:22:48;;;;;;;0.55;0.55;;;;;;;;;;5045445;28;20025;-63
2021/08/04 08:25:14;;;;;;;0.82;0.80;;;;;;;;;;5039635;28;20033;-63
2021/08/04 08:27:41;;;;;;;0.73;0.70;;;;;;;;;;5026889;28;20033;-62
2021/08/04 08:30:08;;;;;;;0.70;0.70;;;;;;;;;;5031362;28;20029;-63
2021/08/04 08:32:34;;;;;;;0.70;0.70;;;;;;;;;;5033162;28;20060;-62
2021/08/04 08:35:00;;;;;;;0.88;0.85;;;;;;;;;;5039523;28;20037;-62
2021/08/04 08:37:27;;;;;;;0.93;0.60;;;;;;;;;;5033345;28;20472;-62
2021/08/04 08:39:53;;;;;;;0.77;0.77;;;;;;;;;;5032246;28;20025;-62
2021/08/04 08:42:19;;;;;;;0.70;0.70;;;;;;;;;;5026967;28;20113;-62
2021/08/04 08:44:46;;;;;;;0.70;0.60;;;;;;;;;;5046391;28;20462;-62
2021/08/04 08:47:12;;;;;;;0.70;0.70;;;;;;;;;;5044488;28;20256;-62
2021/08/04 08:49:41;;;;;;;1.13;1.02;;;;;;;;;;5045062;28;20033;-62
2021/08/04 08:52:07;;;;;;;0.50;0.50;;;;;;;;;;5044943;28;20079;-62
2021/08/04 08:54:33;;;;;;;0.63;0.63;;;;;;;;;;5044689;28;20033;-62
2021/08/04 08:56:59;;;;;;;0.77;0.77;;;;;;;;;;5044485;28;20025;-62
2021/08/04 08:59:25;;;;;;;0.80;0.80;;;;;;;;;;5040713;28;20037;-63
2021/08/04 09:01:51;;;;;;;0.60;0.60;;;;;;;;;;5024768;28;20535;-61
2021/08/04 09:04:17;;;;;;;0.60;0.60;;;;;;;;;;5024310;28;20400;-64
2021/08/04 09:06:43;;;;;;;0.77;0.73;;;;;;;;;;5027217;28;20051;-64
2021/08/04 09:09:13;;;;;;;0.80;0.80;;;;;;;;;;5034796;28;20033;-64
2021/08/04 09:11:39;;;;;;;0.88;0.77;;;;;;;;;;5040454;28;20029;-64
2021/08/04 09:14:06;;;;;;;1.00;0.80;;;;;;;;;;5035506;28;20036;-64
2021/08/04 09:16:34;;;;;;;1.15;1.05;;;;;;;;;;5032656;28;20078;-63
2021/08/04 09:19:00;;;;;;;0.75;0.70;;;;;;;;;;5029925;28;20075;-66
2021/08/04 09:21:26;;;;;;;0.73;0.73;;;;;;;;;;5048311;28;20074;-64
2021/08/04 09:23:53;;;;;;;0.98;0.93;;;;;;;;;;5048816;28;20025;-64
2021/08/04 09:26:20;;;;;;;1.00;0.85;;;;;;;;;;5037262;28;20032;-64
2021/08/04 09:28:53;;;;;;;0.63;0.63;;;;;;;;;;5048371;28;20052;-64
2021/08/04 09:31:20;;;;;;;0.80;0.80;;;;;;;;;;5048286;28;20074;-64
2021/08/04 09:33:47;;;;;;;0.90;0.88;;;;;;;;;;5048028;28;20551;-64
2021/08/04 09:36:17;;;;;;;0.70;0.70;;;;;;;;;;5038830;28;20108;-65
2021/08/04 09:39:00;;;;;;;1.20;0.70;;;;;;;;;;5028218;28;20458;-64
2021/08/04 09:41:26;;;;;;;1.05;0.95;;;;;;;;;;5027822;28;20025;-64
2021/08/04 09:44:02;;;;;;;0.95;0.90;;;;;;;;;;5027858;28;20034;-64
2021/08/04 09:46:29;;;;;;;0.90;0.85;;;;;;;;;;5036208;28;20554;-64
2021/08/04 09:49:09;;;;;;;1.15;1.10;;;;;;;;;;5047234;28;20037;-64
2021/08/04 09:51:35;;;;;;;0.88;0.82;;;;;;;;;;5046169;28;20510;-64
2021/08/04 09:54:11;;;;;;;0.90;0.80;;;;;;;;;;5046053;28;20118;-64
2021/08/04 09:56:58;;;;;;;0.73;0.73;;;;;;;;;;5046319;28;20032;-64
2021/08/04 09:59:25;;;;;;;0.90;0.82;;;;;;;;;;5039725;28;20060;-64
2021/08/04 10:01:51;;;;;;;0.70;0.70;;;;;;;;;;5032668;28;20032;-65
2021/08/04 10:04:18;;;;;;;0.80;0.70;;;;;;;;;;5027880;28;20294;-65
2021/08/04 10:06:45;;;;;;;0.68;0.68;;;;;;;;;;5027646;28;20087;-65
2021/08/04 10:09:13;;;;;;;0.60;0.60;;;;;;;;;;5027902;28;20030;-65
2021/08/04 10:11:46;;;;;;;0.70;0.70;;;;;;;;;;5036049;28;20499;-65
2021/08/04 10:14:16;;;;;;;0.70;0.70;;;;;;;;;;5045873;28;20106;-65
2021/08/04 10:16:43;;;;;;;0.80;0.80;;;;;;;;;;5047352;28;20021;-65
2021/08/04 10:19:10;;;;;;;0.85;0.75;;;;;;;;;;5045523;28;20033;-65
2021/08/04 10:21:37;;;;;;;0.80;0.80;;;;;;;;;;5027716;28;20108;-65
2021/08/04 10:24:05;;;;;;;0.60;0.60;;;;;;;;;;5027505;28;20040;-65
2021/08/04 10:26:31;;;;;;;0.85;0.85;;;;;;;;;;5025454;28;20637;-65
2021/08/04 10:28:57;;;;;;;0.90;0.70;;;;;;;;;;5026821;28;20040;-65
2021/08/04 10:31:24;;;;;;;0.70;0.70;;;;;;;;;;5026923;28;20397;-65
2021/08/04 10:33:52;;;;;;;0.80;0.80;;;;;;;;;;5029524;28;20036;-65
2021/08/04 10:36:19;;;;;;;0.60;0.60;;;;;;;;;;5047046;28;20107;-65
2021/08/04 10:38:46;;;;;;;0.70;0.70;;;;;;;;;;5046862;28;20129;-64
2021/08/04 10:41:17;;;;;;;0.70;0.70;;;;;;;;;;5046288;28;20017;-65
2021/08/04 10:43:44;;;;;;;0.75;0.70;;;;;;;;;;5045439;28;20095;-64
2021/08/04 10:46:28;;;;;;;0.75;0.68;;;;;;;;;;5046974;28;20017;-64
2021/08/04 10:49:15;;;;;;;0.80;0.80;;;;;;;;;;5044035;28;20036;-64
2021/08/04 10:51:43;;;;;;;0.68;0.68;;;;;;;;;;5031272;28;20037;-65
2021/08/04 10:54:15;;;;;;;0.65;0.65;;;;;;;;;;5027553;28;20143;-65
2021/08/04 10:56:44;;;;;;;0.70;0.70;;;;;;;;;;5027890;28;20032;-65
2021/08/04 10:59:10;;;;;;;0.70;0.70;;;;;;;;;;5046762;28;20067;-66
2021/08/04 11:01:39;;;;;;;0.70;0.70;;;;;;;;;;5034950;28;20079;-66
2021/08/04 11:04:06;;;;;;;0.70;0.70;;;;;;;;;;5026309;28;20284;-65
2021/08/04 11:06:33;;;;;;;0.70;0.70;;;;;;;;;;5025127;28;20025;-65
2021/08/04 11:09:18;;;;;;;0.77;0.77;;;;;;;;;;5028040;28;20811;-65
2021/08/04 11:11:57;;;;;;;0.68;0.63;;;;;;;;;;5044939;28;20036;-66
2021/08/04 11:14:36;;;;;;;0.60;0.60;;;;;;;;;;5044719;28;20036;-65
2021/08/04 11:17:02;;;;;;;0.60;0.60;;;;;;;;;;5026011;28;20156;-65
2021/08/04 11:19:34;;;;;;;0.93;0.90;;;;;;;;;;5026440;28;20040;-64
2021/08/04 11:22:17;;;;;;;1.02;0.90;;;;;;;;;;5025656;28;20585;-65
2021/08/04 11:25:00;;;;;;;3.00;0.90;;;;;;;;;;5025950;28;20030;-64
2021/08/04 11:27:30;;;;;;;0.65;0.65;;;;;;;;;;5025593;28;20025;-65
2021/08/04 11:29:57;;;;;;;0.80;0.80;;;;;;;;;;5037701;28;20036;-65
2021/08/04 11:32:26;;;;;;;0.73;0.73;;;;;;;;;;5046026;28;20039;-65
2021/08/04 11:34:52;;;;;;;0.70;0.70;;;;;;;;;;5045681;28;20025;-64
2021/08/04 11:37:19;;;;;;;0.60;0.60;;;;;;;;;;5042855;28;20134;-65
2021/08/04 11:39:56;;;;;;;0.77;0.70;;;;;;;;;;5045376;28;20493;-65
2021/08/04 11:42:22;;;;;;;0.85;0.85;;;;;;;;;;5045550;28;20021;-65
2021/08/04 11:44:49;;;;;;;0.70;0.70;;;;;;;;;;5045492;28;20025;-64
2021/08/04 11:47:16;;;;;;;0.60;0.60;;;;;;;;;;5044265;28;20052;-65
2021/08/04 11:49:43;;;;;;;0.70;0.70;;;;;;;;;;5045544;28;20035;-64
2021/08/04 11:52:10;;;;;;;1.80;0.80;;;;;;;;;;5045093;28;20403;-64
2021/08/04 11:54:59;;;;;;;0.60;0.60;;;;;;;;;;5046181;28;20418;-64
2021/08/04 11:57:27;;;;;;;0.70;0.70;;;;;;;;;;5042377;28;20072;-65
2021/08/04 11:59:55;;;;;;;0.73;0.60;;;;;;;;;;5045163;28;20126;-64
2021/08/04 12:02:22;;;;;;;0.68;0.68;;;;;;;;;;5045305;28;20024;-65
2021/08/04 12:04:52;;;;;;;0.60;0.60;;;;;;;;;;5045551;28;20029;-65
2021/08/04 12:07:22;;;;;;;0.70;0.70;;;;;;;;;;5031460;28;20079;-65
2021/08/04 12:09:49;;;;;;;0.70;0.70;;;;;;;;;;5025210;28;20142;-65
2021/08/04 12:12:27;;;;;;;0.60;0.60;;;;;;;;;;5024554;28;20033;-65
2021/08/04 12:14:53;;;;;;;0.60;0.60;;;;;;;;;;5025262;28;20265;-65
2021/08/04 12:17:23;;;;;;;0.77;0.55;;;;;;;;;;5024949;28;20099;-65
2021/08/04 12:19:52;;;;;;;0.50;0.50;;;;;;;;;;5024964;28;20033;-65
2021/08/04 12:22:22;;;;;;;0.50;0.50;;;;;;;;;;5024272;28;20041;-66
2021/08/04 12:24:55;;;;;;;0.40;0.40;;;;;;;;;;5022952;28;20040;-66
2021/08/04 12:27:33;;;;;;;0.57;0.57;;;;;;;;;;5024668;28;20044;-66
2021/08/04 12:30:07;;;;;;;0.60;0.60;;;;;;;;;;5037707;28;20031;-66
2021/08/04 12:32:34;;;;;;;0.60;0.60;;;;;;;;;;5044908;28;20029;-66
2021/08/04 12:35:02;;;;;;;0.60;0.60;;;;;;;;;;5045097;28;20079;-66
2021/08/04 12:37:33;;;;;;;0.50;0.50;;;;;;;;;;5042929;28;20099;-66
2021/08/04 12:40:08;;;;;;;0.50;0.50;;;;;;;;;;5043707;28;20033;-66
2021/08/04 12:42:34;;;;;;;0.80;0.80;;;;;;;;;;5025444;28;20100;-65
2021/08/04 12:45:22;;;;;;;0.60;0.60;;;;;;;;;;5024779;28;20152;-65
2021/08/04 12:47:59;;;;;;;1.00;0.80;;;;;;;;;;5024638;28;20110;-65
2021/08/04 12:50:27;;;;;;;0.70;0.70;;;;;;;;;;5027965;28;20502;-65
2021/08/04 12:52:53;;;;;;;1.20;0.70;;;;;;;;;;5047295;28;20143;-65
2021/08/04 12:55:19;;;;;;;0.52;0.52;;;;;;;;;;5048557;28;20110;-66
2021/08/04 12:57:46;;;;;;;0.95;0.68;;;;;;;;;;5035539;28;20687;-66
2021/08/04 13:00:27;;;;;;;0.60;0.60;;;;;;;;;;5028787;28;20202;-66
2021/08/04 13:02:54;;;;;;;0.85;0.70;;;;;;;;;;5042107;28;20021;-66
2021/08/04 13:05:20;;;;;;;0.90;0.90;;;;;;;;;;5042858;28;20083;-65
2021/08/04 13:07:46;;;;;;;0.77;0.77;;;;;;;;;;5038836;28;20380;-65
2021/08/04 13:10:14;;;;;;;0.70;0.70;;;;;;;;;;5038962;28;20021;-65
2021/08/04 13:12:40;;;;;;;0.90;0.90;;;;;;;;;;5049600;28;20021;-65
2021/08/04 13:15:11;;;;;;;1.48;1.05;;;;;;;;;;5033687;28;20025;-65
2021/08/04 13:17:41;;;;;;;0.75;0.75;;;;;;;;;;5040042;28;20017;-65
2021/08/04 13:20:18;;;;;;;0.73;0.68;;;;;;;;;;5033106;28;20030;-65
2021/08/04 13:23:02;;;;;;;0.82;0.82;;;;;;;;;;5036856;28;20048;-64
2021/08/04 13:25:32;;;;;;;0.68;0.68;;;;;;;;;;5041900;28;20106;-65
2021/08/04 13:28:01;;;;;;;0.63;0.63;;;;;;;;;;5045756;28;20116;-65
2021/08/04 13:30:32;;;;;;;0.70;0.70;;;;;;;;;;5068661;28;20021;-66
2021/08/04 13:33:08;;;;;;;2.40;1.25;;;;;;;;;;5054545;28;20025;-65
2021/08/04 13:35:36;;;;;;;0.95;0.90;;;;;;;;;;5044830;28;20059;-66
2021/08/04 13:38:03;;;;;;;0.90;0.90;;;;;;;;;;5027137;28;20036;-66
2021/08/04 13:40:30;;;;;;;0.80;0.80;;;;;;;;;;5027400;28;20029;-66
2021/08/04 13:42:56;;;;;;;0.85;0.80;;;;;;;;;;5033459;28;20025;-65
2021/08/04 13:45:23;;;;;;;1.13;0.82;;;;;;;;;;5035565;28;20403;-65
2021/08/04 13:47:50;;;;;;;0.80;0.80;;;;;;;;;;5038046;28;20407;-65
2021/08/04 13:50:17;;;;;;;0.90;0.90;;;;;;;;;;5045898;28;20112;-65
2021/08/04 13:52:44;;;;;;;1.08;1.00;;;;;;;;;;5038455;28;20028;-64
2021/08/04 13:55:11;;;;;;;1.20;1.10;;;;;;;;;;5037397;28;20033;-66
2021/08/04 13:57:38;;;;;;;0.88;0.88;;;;;;;;;;5029064;28;20029;-66
2021/08/04 14:00:06;;;;;;;1.02;0.98;;;;;;;;;;5028092;28;20030;-65
2021/08/04 14:02:33;;;;;;;0.88;0.88;;;;;;;;;;5037479;28;20490;-65
2021/08/04 14:04:58;;;;;;;1.05;1.00;;;;;;;;;;5026681;28;20034;-65
2021/08/04 14:07:25;;;;;;;1.05;0.88;;;;;;;;;;5027362;28;20029;-65
2021/08/04 14:09:52;;;;;;;1.10;1.00;;;;;;;;;;5033261;28;20033;-65
2021/08/04 14:12:19;;;;;;;1.05;1.02;;;;;;;;;;5037821;28;20036;-65
2021/08/04 14:14:45;;;;;;;1.25;1.15;;;;;;;;;;5043126;28;20040;-65
2021/08/04 14:17:11;;;;;;;1.10;1.00;;;;;;;;;;5039113;28;20155;-64
2021/08/04 14:19:38;;;;;;;0.80;0.80;;;;;;;;;;5027165;28;20112;-64
2021/08/04 14:22:05;;;;;;;0.95;0.95;;;;;;;;;;5033359;28;20035;-64
2021/08/04 14:24:32;;;;;;;1.50;1.23;;;;;;;;;;5043866;28;20021;-64
2021/08/04 14:26:59;;;;;;;1.83;1.38;;;;;;;;;;5037962;28;20025;-64
2021/08/04 14:29:26;;;;;;;1.80;1.45;;;;;;;;;;5027587;28;20045;-64
2021/08/04 14:31:52;;;;;;;1.38;1.20;;;;;;;;;;5029911;28;20578;-64
2021/08/04 14:34:18;;;;;;;1.02;1.02;;;;;;;;;;5027591;28;20104;-64
2021/08/04 14:36:44;;;;;;;1.20;1.10;;;;;;;;;;5051656;28;20029;-64
2021/08/04 14:39:10;;;;;;;1.15;1.10;;;;;;;;;;5032549;28;20044;-64
2021/08/04 14:41:36;;;;;;;1.35;1.05;;;;;;;;;;5047419;28;20110;-64
2021/08/04 14:44:03;;;;;;;1.48;1.25;;;;;;;;;;5046914;28;20079;-64
2021/08/04 14:46:30;;;;;;;1.40;1.17;;;;;;;;;;5031390;28;20061;-64